Time,TemperatureF,DewpointF,PressureIn,WindDirection,WindDirectionDegrees,WindSpeedMPH,WindSpeedGustMPH,Humidity,HourlyPrecipIn,Conditions,Clouds,dailyrainin,SoftwareType,DateUTC
2013-04-06 00:04:00,38.0,21.0,-100.00,NNW,335,4.0,14.0,49,0.00,,,-99.99,,2013-04-06 04:04:00,
2013-04-06 00:14:00,38.0,21.0,-100.00,ENE,65,4.0,17.0,49,0.00,,,-99.99,,2013-04-06 04:14:00,
2013-04-06 00:23:00,38.0,21.0,-100.00,NNW,335,9.0,13.0,49,0.00,,,-99.99,,2013-04-06 04:23:00,
2013-04-06 00:33:00,38.0,20.0,-100.00,NNW,340,7.0,16.0,48,0.00,,,-99.99,,2013-04-06 04:33:00,
2013-04-06 00:43:00,38.0,20.0,-100.00,NW,325,4.0,12.0,49,0.00,,,-99.99,,2013-04-06 04:43:00,
2013-04-06 00:52:00,38.0,20.0,-100.00,NNW,345,4.0,12.0,49,0.00,,,-99.99,,2013-04-06 04:52:00,
2013-04-06 01:02:00,37.0,19.0,-100.00,North,350,7.0,17.0,48,0.00,,,-99.99,,2013-04-06 05:02:00,
2013-04-06 01:13:00,37.0,19.0,-100.00,North,350,4.0,12.0,48,0.00,,,-99.99,,2013-04-06 05:13:00,
2013-04-06 01:23:00,37.0,19.0,-100.00,NW,325,7.0,14.0,48,0.00,,,-99.99,,2013-04-06 05:23:00,
2013-04-06 01:33:00,36.0,18.0,-100.00,North,10,6.0,14.0,47,0.00,,,-99.99,,2013-04-06 05:33:00,
2013-04-06 01:43:00,36.0,18.0,-100.00,NNW,340,7.0,16.0,47,0.00,,,-99.99,,2013-04-06 05:43:00,
2013-04-06 01:52:00,36.0,18.0,-100.00,North,355,4.0,16.0,47,0.00,,,-99.99,,2013-04-06 05:52:00,
2013-04-06 02:03:00,36.0,18.0,-100.00,North,10,4.0,14.0,48,0.00,,,-99.99,,2013-04-06 06:03:00,
2013-04-06 02:12:00,35.0,18.0,-100.00,NNE,25,7.0,17.0,47,0.00,,,-99.99,,2013-04-06 06:12:00,
2013-04-06 02:22:00,35.0,17.0,-100.00,NNW,330,6.0,17.0,47,0.00,,,-99.99,,2013-04-06 06:22:00,
2013-04-06 02:33:00,35.0,17.0,-100.00,NE,50,4.0,14.0,46,0.00,,,-99.99,,2013-04-06 06:33:00,
2013-04-06 02:43:00,35.0,17.0,-100.00,NE,40,3.0,12.0,48,0.00,,,-99.99,,2013-04-06 06:43:00,
2013-04-06 02:52:00,34.0,18.0,-100.00,East,90,2.0,8.0,50,0.00,,,-99.99,,2013-04-06 06:52:00,
2013-04-06 03:12:00,34.0,17.0,-100.00,North,0,3.0,14.0,48,0.00,,,-99.99,,2013-04-06 07:12:00,
2013-04-06 03:22:00,34.0,16.0,-100.00,NNW,335,3.0,9.0,47,0.00,,,-99.99,,2013-04-06 07:22:00,
2013-04-06 03:33:00,33.0,16.0,-100.00,NE,55,2.0,9.0,47,0.00,,,-99.99,,2013-04-06 07:33:00,
2013-04-06 03:43:00,33.0,16.0,-100.00,NNW,345,2.0,9.0,48,0.00,,,-99.99,,2013-04-06 07:43:00,
2013-04-06 03:52:00,33.0,16.0,-100.00,NNW,335,4.0,7.0,49,0.00,,,-99.99,,2013-04-06 07:52:00,
2013-04-06 04:02:00,33.0,16.0,-100.00,NNE,15,5.0,11.0,48,0.00,,,-99.99,,2013-04-06 08:02:00,
2013-04-06 04:13:00,33.0,15.0,-100.00,East,90,2.0,11.0,46,0.00,,,-99.99,,2013-04-06 08:13:00,
2013-04-06 04:22:00,33.0,14.0,-100.00,NNE,25,4.0,11.0,46,0.00,,,-99.99,,2013-04-06 08:22:00,
2013-04-06 04:32:00,32.0,14.0,-100.00,North,10,2.0,10.0,46,0.00,,,-99.99,,2013-04-06 08:32:00,
2013-04-06 04:42:00,32.0,14.0,-100.00,NNE,25,3.0,10.0,45,0.00,,,-99.99,,2013-04-06 08:42:00,
2013-04-06 04:52:00,32.0,13.0,-100.00,ENE,70,2.0,14.0,45,0.00,,,-99.99,,2013-04-06 08:52:00,
2013-04-06 05:02:00,32.0,13.0,-100.00,North,355,2.0,7.0,45,0.00,,,-99.99,,2013-04-06 09:02:00,
2013-04-06 05:13:00,32.0,13.0,-100.00,NNW,335,2.0,6.0,45,0.00,,,-99.99,,2013-04-06 09:13:00,
2013-04-06 05:22:00,31.0,13.0,-100.00,ENE,60,2.0,7.0,46,0.00,,,-99.99,,2013-04-06 09:22:00,
2013-04-06 05:33:00,31.0,10.0,-100.00,NNW,335,6.0,16.0,40,0.00,,,-99.99,,2013-04-06 09:33:00,
2013-04-06 05:43:00,31.0,9.0,-100.00,North,350,6.0,16.0,37,0.00,,,-99.99,,2013-04-06 09:43:00,
2013-04-06 05:53:00,31.0,8.0,-100.00,North,0,4.0,16.0,37,0.00,,,-99.99,,2013-04-06 09:53:00,
2013-04-06 06:03:00,31.0,8.0,-100.00,NNE,25,4.0,17.0,36,0.00,,,-99.99,,2013-04-06 10:03:00,
2013-04-06 06:13:00,31.0,8.0,-100.00,NNW,345,6.0,12.0,37,0.00,,,-99.99,,2013-04-06 10:13:00,
2013-04-06 06:23:00,30.0,8.0,-100.00,NNE,20,2.0,8.0,38,0.00,,,-99.99,,2013-04-06 10:23:00,
2013-04-06 06:33:00,30.0,8.0,-100.00,NNE,30,2.0,7.0,39,0.00,,,-99.99,,2013-04-06 10:33:00,
2013-04-06 06:43:00,30.0,8.0,-100.00,NNE,30,4.0,12.0,38,0.00,,,-99.99,,2013-04-06 10:43:00,
2013-04-06 06:52:00,30.0,8.0,-100.00,North,10,7.0,17.0,39,0.00,,,-99.99,,2013-04-06 10:52:00,
2013-04-06 07:03:00,30.0,8.0,-100.00,NNW,340,5.0,12.0,39,0.00,,,-99.99,,2013-04-06 11:03:00,
2013-04-06 07:13:00,30.0,7.0,-100.00,NNW,335,11.0,20.0,37,0.00,,,-99.99,,2013-04-06 11:13:00,
2013-04-06 07:23:00,30.0,6.0,-100.00,NNE,30,6.0,21.0,35,0.00,,,-99.99,,2013-04-06 11:23:00,
2013-04-06 07:33:00,30.0,5.0,-100.00,North,5,4.0,14.0,35,0.00,,,-99.99,,2013-04-06 11:33:00,
2013-04-06 07:43:00,30.0,5.0,-100.00,North,5,6.0,13.0,33,0.00,,,-99.99,,2013-04-06 11:43:00,
2013-04-06 07:52:00,29.0,4.0,-100.00,North,350,8.0,20.0,33,0.00,,,-99.99,,2013-04-06 11:52:00,
2013-04-06 08:02:00,30.0,5.0,-100.00,NE,45,6.0,14.0,34,0.00,,,-99.99,,2013-04-06 12:02:00,
2013-04-06 08:13:00,30.0,5.0,-100.00,North,5,7.0,17.0,33,0.00,,,-99.99,,2013-04-06 12:13:00,
2013-04-06 08:22:00,29.0,4.0,-100.00,North,10,7.0,20.0,32,0.00,,,-99.99,,2013-04-06 12:22:00,
2013-04-06 08:33:00,30.0,4.0,-100.00,North,0,6.0,16.0,33,0.00,,,-99.99,,2013-04-06 12:33:00,
2013-04-06 08:44:00,29.0,4.0,-100.00,NNW,340,9.0,19.0,33,0.00,,,-99.99,,2013-04-06 12:44:00,
2013-04-06 08:52:00,30.0,5.0,-100.00,NNW,335,7.0,21.0,34,0.00,,,-99.99,,2013-04-06 12:52:00,
2013-04-06 09:03:00,30.0,6.0,-100.00,NNW,330,17.0,29.0,34,0.00,,,-99.99,,2013-04-06 13:03:00,
2013-04-06 09:13:00,30.0,5.0,-100.00,NNW,335,9.0,24.0,34,0.00,,,-99.99,,2013-04-06 13:13:00,
2013-04-06 09:24:00,31.0,6.0,-100.00,ENE,60,4.0,20.0,33,0.00,,,-99.99,,2013-04-06 13:24:00,
2013-04-06 09:32:00,31.0,5.0,-100.00,NW,325,12.0,27.0,32,0.00,,,-99.99,,2013-04-06 13:32:00,
2013-04-06 09:43:00,32.0,5.0,-100.00,NNE,20,5.0,17.0,31,0.00,,,-99.99,,2013-04-06 13:43:00,
2013-04-06 09:52:00,32.0,3.0,-100.00,NE,55,7.0,16.0,28,0.00,,,-99.99,,2013-04-06 13:52:00,
2013-04-06 10:05:00,32.0,3.0,-100.00,North,5,8.0,17.0,28,0.00,,,-99.99,,2013-04-06 14:05:00,
2013-04-06 10:12:00,32.0,2.0,-100.00,NNW,335,10.0,19.0,27,0.00,,,-99.99,,2013-04-06 14:12:00,
2013-04-06 10:23:00,33.0,2.0,-100.00,NNW,340,9.0,21.0,25,0.00,,,-99.99,,2013-04-06 14:23:00,
2013-04-06 10:33:00,34.0,1.0,-100.00,North,350,9.0,24.0,24,0.00,,,-99.99,,2013-04-06 14:33:00,
2013-04-06 10:43:00,33.0,0.0,-100.00,NNE,30,9.0,23.0,24,0.00,,,-99.99,,2013-04-06 14:43:00,
2013-04-06 10:52:00,34.0,0.0,-100.00,ENE,60,7.0,18.0,22,0.00,,,-99.99,,2013-04-06 14:52:00,
2013-04-06 11:02:00,34.0,0.0,-100.00,NNW,330,13.0,21.0,23,0.00,,,-99.99,,2013-04-06 15:02:00,
2013-04-06 11:12:00,35.0,1.0,-100.00,NNW,330,14.0,22.0,23,0.00,,,-99.99,,2013-04-06 15:12:00,
2013-04-06 11:23:00,35.0,-1.0,-100.00,NE,55,9.0,29.0,21,0.00,,,-99.99,,2013-04-06 15:23:00,
2013-04-06 11:33:00,36.0,1.0,-100.00,North,0,6.0,21.0,22,0.00,,,-99.99,,2013-04-06 15:33:00,
2013-04-06 11:43:00,35.0,0.0,-100.00,NNW,335,17.0,25.0,21,0.00,,,-99.99,,2013-04-06 15:43:00,
2013-04-06 11:53:00,36.0,0.0,-100.00,NNW,335,9.0,28.0,21,0.00,,,-99.99,,2013-04-06 15:53:00,
2013-04-06 12:05:00,37.0,0.0,-100.00,North,355,6.0,26.0,20,0.00,,,-99.99,,2013-04-06 16:05:00,
2013-04-06 12:17:00,37.0,0.0,-100.00,NW,325,15.0,27.0,20,0.00,,,-99.99,,2013-04-06 16:17:00,
2013-04-06 12:23:00,37.0,0.0,-100.00,NNW,335,12.0,28.0,20,0.00,,,-99.99,,2013-04-06 16:23:00,
2013-04-06 12:33:00,38.0,0.0,-100.00,NNE,20,4.0,16.0,18,0.00,,,-99.99,,2013-04-06 16:33:00,
2013-04-06 12:43:00,38.0,1.0,-100.00,NE,50,6.0,17.0,20,0.00,,,-99.99,,2013-04-06 16:43:00,
2013-04-06 12:53:00,39.0,1.0,-100.00,NNE,15,5.0,14.0,19,0.00,,,-99.99,,2013-04-06 16:53:00,
2013-04-06 13:03:00,40.0,1.0,-100.00,NNW,340,12.0,24.0,18,0.00,,,-99.99,,2013-04-06 17:03:00,
2013-04-06 13:13:00,39.0,0.0,-100.00,NNW,335,12.0,21.0,18,0.00,,,-99.99,,2013-04-06 17:13:00,
2013-04-06 13:22:00,39.0,0.0,-100.00,North,350,10.0,20.0,18,0.00,,,-99.99,,2013-04-06 17:22:00,
2013-04-06 13:33:00,39.0,0.0,-100.00,North,0,6.0,18.0,18,0.00,,,-99.99,,2013-04-06 17:33:00,
2013-04-06 13:43:00,41.0,0.0,-100.00,ENE,60,6.0,16.0,17,0.00,,,-99.99,,2013-04-06 17:43:00,
2013-04-06 13:52:00,40.0,1.0,-100.00,North,5,7.0,17.0,19,0.00,,,-99.99,,2013-04-06 17:52:00,
2013-04-06 14:03:00,41.0,0.0,-100.00,North,10,7.0,17.0,17,0.00,,,-99.99,,2013-04-06 18:03:00,
2013-04-06 14:13:00,42.0,0.0,-100.00,ENE,60,6.0,19.0,17,0.00,,,-99.99,,2013-04-06 18:13:00,
2013-04-06 14:24:00,41.0,1.0,-100.00,NNW,340,12.0,21.0,17,0.00,,,-99.99,,2013-04-06 18:24:00,
2013-04-06 14:32:00,42.0,1.0,-100.00,NNE,20,6.0,17.0,17,0.00,,,-99.99,,2013-04-06 18:32:00,
2013-04-06 14:42:00,41.0,0.0,-100.00,NNW,335,17.0,25.0,16,0.00,,,-99.99,,2013-04-06 18:42:00,
2013-04-06 14:52:00,42.0,0.0,-100.00,NNW,340,6.0,17.0,16,0.00,,,-99.99,,2013-04-06 18:52:00,
2013-04-06 15:03:00,42.0,-1.0,-100.00,NW,325,13.0,18.0,15,0.00,,,-99.99,,2013-04-06 19:03:00,
2013-04-06 15:12:00,42.0,-1.0,-100.00,North,0,4.0,21.0,16,0.00,,,-99.99,,2013-04-06 19:12:00,
2013-04-06 15:23:00,43.0,-1.0,-100.00,ENE,65,6.0,19.0,15,0.00,,,-99.99,,2013-04-06 19:23:00,
2013-04-06 15:33:00,43.0,-1.0,-100.00,NNW,340,8.0,17.0,15,0.00,,,-99.99,,2013-04-06 19:33:00,
2013-04-06 15:42:00,43.0,-1.0,-100.00,ENE,60,6.0,21.0,15,0.00,,,-99.99,,2013-04-06 19:42:00,
2013-04-06 15:53:00,43.0,-2.0,-100.00,NNW,340,12.0,22.0,14,0.00,,,-99.99,,2013-04-06 19:53:00,
2013-04-06 16:03:00,43.0,0.0,-100.00,ENE,70,7.0,16.0,15,0.00,,,-99.99,,2013-04-06 20:03:00,
2013-04-06 16:13:00,44.0,-1.0,-100.00,North,10,6.0,15.0,14,0.00,,,-99.99,,2013-04-06 20:13:00,
2013-04-06 16:23:00,44.0,-2.0,-100.00,North,10,4.0,13.0,14,0.00,,,-99.99,,2013-04-06 20:23:00,
2013-04-06 16:32:00,44.0,-1.0,-100.00,NW,325,7.0,21.0,15,0.00,,,-99.99,,2013-04-06 20:32:00,
2013-04-06 16:42:00,44.0,0.0,-100.00,North,355,4.0,18.0,14,0.00,,,-99.99,,2013-04-06 20:42:00,
2013-04-06 16:52:00,44.0,-3.0,-100.00,NW,325,14.0,20.0,13,0.00,,,-99.99,,2013-04-06 20:52:00,
2013-04-06 17:02:00,44.0,-1.0,-100.00,NNW,330,7.0,20.0,14,0.00,,,-99.99,,2013-04-06 21:02:00,
2013-04-06 17:14:00,44.0,-2.0,-100.00,NNW,335,4.0,17.0,14,0.00,,,-99.99,,2013-04-06 21:14:00,
2013-04-06 17:22:00,45.0,-1.0,-100.00,ENE,70,5.0,14.0,14,0.00,,,-99.99,,2013-04-06 21:22:00,
2013-04-06 17:33:00,45.0,-2.0,-100.00,NE,50,3.0,11.0,13,0.00,,,-99.99,,2013-04-06 21:33:00,
2013-04-06 17:43:00,44.0,-2.0,-100.00,NNW,330,7.0,12.0,13,0.00,,,-99.99,,2013-04-06 21:43:00,
2013-04-06 17:52:00,44.0,-2.0,-100.00,NW,325,9.0,15.0,14,0.00,,,-99.99,,2013-04-06 21:52:00,
2013-04-06 18:03:00,44.0,-1.0,-100.00,ENE,70,4.0,11.0,14,0.00,,,-99.99,,2013-04-06 22:03:00,
2013-04-06 18:13:00,45.0,-1.0,-100.00,NW,315,4.0,11.0,14,0.00,,,-99.99,,2013-04-06 22:13:00,
2013-04-06 18:23:00,45.0,0.0,-100.00,North,350,4.0,8.0,15,0.00,,,-99.99,,2013-04-06 22:23:00,
2013-04-06 18:35:00,44.0,0.0,-100.00,NNE,20,2.0,7.0,15,0.00,,,-99.99,,2013-04-06 22:35:00,
2013-04-06 18:43:00,45.0,1.0,-100.00,NW,325,3.0,8.0,15,0.00,,,-99.99,,2013-04-06 22:43:00,
2013-04-06 18:53:00,44.0,0.0,-100.00,NE,40,2.0,7.0,15,0.00,,,-99.99,,2013-04-06 22:53:00,
2013-04-06 19:03:00,44.0,0.0,-100.00,NNW,335,5.0,8.0,15,0.00,,,-99.99,,2013-04-06 23:03:00,
2013-04-06 19:14:00,44.0,0.0,-100.00,NW,325,6.0,9.0,15,0.00,,,-99.99,,2013-04-06 23:14:00,
2013-04-06 19:23:00,42.0,3.0,-100.00,NE,40,1.0,7.0,18,0.00,,,-99.99,,2013-04-06 23:23:00,
2013-04-06 19:34:00,42.0,2.0,-100.00,South,170,1.0,4.0,18,0.00,,,-99.99,,2013-04-06 23:34:00,
2013-04-06 19:43:00,41.0,4.0,-100.00,NE,55,1.0,3.0,21,0.00,,,-99.99,,2013-04-06 23:43:00,
2013-04-06 19:53:00,40.0,6.0,-100.00,ENE,60,0.0,3.0,24,0.00,,,-99.99,,2013-04-06 23:53:00,
2013-04-06 20:03:00,39.0,8.0,-100.00,South,190,1.0,2.0,27,0.00,,,-99.99,,2013-04-07 00:03:00,
2013-04-06 20:13:00,38.0,5.0,-100.00,WSW,250,1.0,2.0,24,0.00,,,-99.99,,2013-04-07 00:13:00,
2013-04-06 20:23:00,38.0,5.0,-100.00,East,90,0.0,2.0,25,0.00,,,-99.99,,2013-04-07 00:23:00,
2013-04-06 20:33:00,37.0,6.0,-100.00,SSW,200,1.0,2.0,26,0.00,,,-99.99,,2013-04-07 00:33:00,
2013-04-06 20:43:00,36.0,6.0,-100.00,WNW,295,1.0,2.0,26,0.00,,,-99.99,,2013-04-07 00:43:00,
2013-04-06 20:52:00,35.0,9.0,-100.00,South,180,1.0,1.0,33,0.00,,,-99.99,,2013-04-07 00:52:00,
2013-04-06 21:03:00,35.0,6.0,-100.00,West,260,1.0,2.0,29,0.00,,,-99.99,,2013-04-07 01:03:00,
2013-04-06 21:12:00,34.0,10.0,-100.00,South,170,0.0,1.0,36,0.00,,,-99.99,,2013-04-07 01:12:00,
2013-04-06 21:24:00,33.0,8.0,-100.00,NE,55,1.0,1.0,34,0.00,,,-99.99,,2013-04-07 01:24:00,
2013-04-06 21:33:00,33.0,7.0,-100.00,WSW,240,0.0,2.0,33,0.00,,,-99.99,,2013-04-07 01:33:00,
2013-04-06 21:43:00,32.0,8.0,-100.00,South,185,1.0,1.0,35,0.00,,,-99.99,,2013-04-07 01:43:00,
2013-04-06 21:52:00,32.0,9.0,-100.00,NNW,330,1.0,2.0,37,0.00,,,-99.99,,2013-04-07 01:52:00,
2013-04-06 22:03:00,31.0,9.0,-100.00,South,170,0.0,2.0,38,0.00,,,-99.99,,2013-04-07 02:03:00,
2013-04-06 22:13:00,31.0,9.0,-100.00,South,180,1.0,3.0,39,0.00,,,-99.99,,2013-04-07 02:13:00,
2013-04-06 22:24:00,31.0,11.0,-100.00,North,10,0.0,1.0,42,0.00,,,-99.99,,2013-04-07 02:24:00,
2013-04-06 22:33:00,30.0,10.0,-100.00,West,275,1.0,1.0,42,0.00,,,-99.99,,2013-04-07 02:33:00,
2013-04-06 22:43:00,30.0,12.0,-100.00,SW,225,0.0,2.0,46,0.00,,,-99.99,,2013-04-07 02:43:00,
2013-04-06 22:52:00,30.0,12.0,-100.00,ENE,75,1.0,2.0,46,0.00,,,-99.99,,2013-04-07 02:52:00,
2013-04-06 23:03:00,30.0,12.0,-100.00,South,190,1.0,6.0,46,0.00,,,-99.99,,2013-04-07 03:03:00,
2013-04-06 23:13:00,29.0,11.0,-100.00,SSW,205,1.0,2.0,46,0.00,,,-99.99,,2013-04-07 03:13:00,
2013-04-06 23:22:00,29.0,12.0,-100.00,NW,315,0.0,2.0,47,0.00,,,-99.99,,2013-04-07 03:22:00,
2013-04-06 23:35:00,29.0,11.0,-100.00,NW,320,1.0,2.0,47,0.00,,,-99.99,,2013-04-07 03:35:00,
2013-04-06 23:44:00,29.0,12.0,-100.00,South,170,1.0,2.0,50,0.00,,,-99.99,,2013-04-07 03:44:00,
2013-04-06 23:53:00,29.0,14.0,-100.00,North,350,0.0,2.0,52,0.00,,,-99.99,,2013-04-07 03:53:00,